Maui, HI

2:32 PM HST on March 03, 2015 (GMT -1000)
Kehalani | Change Station
CLOSE
Current Station
Personal Weather Station
Location: Wailuku, HI
Elevation: 358 ft
Nearby Weather Stations

Elev 358 ft 20.87 °N, 156.50 °W | Updated 16 minutes ago

Mostly Cloudy
Mostly Cloudy
76.8 °F
Feels Like 78 °F
N
11.9
Wind Variable Wind from NNE

Today
High -- | Low -- °F
--% Chance of Precip.
Yesterday
High -- | Low -- °F
Precip. -- in
6:44 AM 6:31 PM
Waxing Gibbous, 97% visible
Pressure 30.01 in
Visibility 10.0 miles
Clouds Scattered Clouds 2000 ft
Mostly Cloudy 3500 ft
Heat Index 78 °F
Dew Point 67 °F
Humidity 72%
Rainfall 0.02 in
Snow Depth Not available.
UV 5 out of 12
Pollen Not available.
Air Quality Not available.
Flu Activity Not available.
METAR PHOG 032354Z 03017KT 10SM SCT020 BKN035 27/20 A2999 RMK AO2 SLP161 T02720200 10283 20239 56024

More Conditions Fewer Conditions

Pressure 30.01 in
Visibility 10.0 miles
Clouds Scattered Clouds 2000 ft
Mostly Cloudy 3500 ft
Heat Index 78 °F
Dew Point 67 °F
Humidity 72%
Rainfall 0.02 in
Snow Depth Not available.
UV 5 out of 12
Pollen Not available.
Air Quality Not available.
Flu Activity Not available.
METAR PHOG 032354Z 03017KT 10SM SCT020 BKN035 27/20 A2999 RMK AO2 SLP161 T02720200 10283 20239 56024

More Conditions Fewer Conditions

10-Day Weather Forecast

Almanac

Astronomy

Mar. 03, 2015 Rise Set
Actual Time
Civil Twilight
Nautical Twilight
Astronomical Twilight
Moon
Length of Visible Light
Length of Day
Tomorrow will be .
, % of the Moon is Illuminated

Today's Extremes

State Highs State Lows

Community

WunderPhotos

Upload Photos

1,802,340 photos uploaded!

WunderBlogs® & News

Nearby

Air Quality

  Air Quality AQ Index Pollutant
Not available.

Snow Depth

Station Depth Elevation

Earthquake Activity

City Distance Mag. Time & Date
Minimum magnitude displayed is 2.5.

Coastal Water Temperatures

Place Temperature

Nearby Weather Stations